Time,TemperatureF,DewpointF,PressureIn,WindDirection,WindDirectionDegrees,WindSpeedMPH,WindSpeedGustMPH,Humidity,HourlyPrecipIn,Conditions,Clouds,dailyrainin,SoftwareType,DateUTC
2013-01-26 00:01:00,26.1,14.8,30.27,North,0,0.0,0.0,62,0.00,,---,0.00,VWS V14.01,2013-01-26 06:01:00,
2013-01-26 00:06:00,26.1,14.8,30.27,North,0,0.0,0.0,62,0.00,,---,0.00,VWS V14.01,2013-01-26 06:06:00,
2013-01-26 00:11:00,26.2,15.0,30.27,North,0,0.0,0.0,62,0.00,,---,0.00,VWS V14.01,2013-01-26 06:11:00,
2013-01-26 00:15:00,26.4,15.2,30.27,North,0,0.0,0.0,62,0.00,,---,0.00,VWS V14.01,2013-01-26 06:15:00,
2013-01-26 00:20:00,26.6,15.4,30.27,North,0,0.0,0.0,62,0.00,,---,0.00,VWS V14.01,2013-01-26 06:20:00,
2013-01-26 00:26:00,26.8,15.9,30.27,North,0,0.0,0.0,63,0.00,,---,0.00,VWS V14.01,2013-01-26 06:26:00,
2013-01-26 00:30:00,27.0,16.1,30.27,North,0,0.0,0.0,63,0.00,,---,0.00,VWS V14.01,2013-01-26 06:30:00,
2013-01-26 00:35:00,27.0,15.7,30.27,North,0,0.0,0.0,62,0.00,,---,0.00,VWS V14.01,2013-01-26 06:35:00,
2013-01-26 00:41:00,27.0,15.7,30.27,NNE,22,0.0,0.0,62,0.00,,---,0.00,VWS V14.01,2013-01-26 06:41:00,
2013-01-26 08:41:00,34.3,23.8,30.27,SSE,158,0.0,0.0,65,0.00,,---,0.00,VWS V14.01,2013-01-26 14:41:00,
2013-01-26 08:46:00,34.7,24.1,30.27,ESE,112,0.0,0.0,65,0.00,,---,0.00,VWS V14.01,2013-01-26 14:46:00,
2013-01-26 08:51:00,35.4,24.5,30.27,ENE,68,0.0,0.0,64,0.00,,---,0.00,VWS V14.01,2013-01-26 14:51:00,
2013-01-26 08:56:00,36.0,24.6,30.27,South,180,0.0,0.0,63,0.00,,---,0.00,VWS V14.01,2013-01-26 14:56:00,
2013-01-26 09:01:00,36.7,24.9,30.27,ESE,112,1.3,1.3,62,0.00,,---,0.00,VWS V14.01,2013-01-26 15:01:00,
2013-01-26 09:06:00,37.2,25.4,30.27,East,90,1.6,2.7,62,0.00,,---,0.00,VWS V14.01,2013-01-26 15:06:00,
2013-01-26 09:11:00,38.1,25.9,30.27,SE,135,0.0,0.0,61,0.00,,---,0.00,VWS V14.01,2013-01-26 15:11:00,
2013-01-26 09:16:00,38.7,26.0,30.27,South,180,0.0,1.6,60,0.00,,---,0.00,VWS V14.01,2013-01-26 15:16:00,
2013-01-26 09:21:00,39.0,25.9,30.27,South,180,1.1,1.1,59,0.00,,---,0.00,VWS V14.01,2013-01-26 15:21:00,
2013-01-26 09:26:00,39.4,25.9,30.27,ESE,112,0.0,0.0,58,0.00,,---,0.00,VWS V14.01,2013-01-26 15:26:00,
2013-01-26 09:31:00,39.9,25.9,30.30,WSW,248,0.0,1.1,57,0.00,,---,0.00,VWS V14.01,2013-01-26 15:31:00,
2013-01-26 09:36:00,40.6,26.6,30.30,SE,135,0.0,0.9,57,0.00,,---,0.00,VWS V14.01,2013-01-26 15:36:00,
2013-01-26 09:41:00,41.5,27.0,30.30,East,90,0.0,1.3,56,0.00,,---,0.00,VWS V14.01,2013-01-26 15:41:00,
2013-01-26 09:46:00,42.3,27.3,30.27,South,180,0.0,0.0,55,0.00,,---,0.00,VWS V14.01,2013-01-26 15:46:00,
2013-01-26 09:51:00,43.0,27.5,30.27,East,90,0.0,2.9,54,0.00,,---,0.00,VWS V14.01,2013-01-26 15:51:00,
2013-01-26 09:56:00,43.7,27.7,30.27,ESE,112,0.0,0.0,53,0.00,,---,0.00,VWS V14.01,2013-01-26 15:56:00,
2013-01-26 10:01:00,44.8,28.7,30.30,East,90,0.9,0.9,53,0.00,,---,0.00,VWS V14.01,2013-01-26 16:01:00,
2013-01-26 10:06:00,45.3,29.2,30.30,East,90,0.0,0.0,53,0.00,,---,0.00,VWS V14.01,2013-01-26 16:06:00,
2013-01-26 10:11:00,46.4,29.3,30.30,East,90,0.0,0.0,51,0.00,,---,0.00,VWS V14.01,2013-01-26 16:11:00,
2013-01-26 10:16:00,47.3,30.1,30.30,South,180,0.0,0.9,51,0.00,,---,0.00,VWS V14.01,2013-01-26 16:16:00,
2013-01-26 10:21:00,47.8,30.1,30.30,South,180,0.0,1.1,50,0.00,,---,0.00,VWS V14.01,2013-01-26 16:21:00,
2013-01-26 10:26:00,48.2,30.0,30.30,SSE,158,1.3,1.3,49,0.00,,---,0.00,VWS V14.01,2013-01-26 16:26:00,
2013-01-26 10:31:00,48.7,29.9,30.30,South,180,0.0,0.0,48,0.00,,---,0.00,VWS V14.01,2013-01-26 16:31:00,
2013-01-26 10:36:00,49.5,30.6,30.30,South,180,0.0,0.0,48,0.00,,---,0.00,VWS V14.01,2013-01-26 16:36:00,
2013-01-26 10:41:00,50.0,30.6,30.30,South,180,0.0,0.9,47,0.00,,---,0.00,VWS V14.01,2013-01-26 16:41:00,
2013-01-26 10:46:00,51.1,31.6,30.30,SSE,158,0.0,0.0,47,0.00,,---,0.00,VWS V14.01,2013-01-26 16:46:00,
2013-01-26 10:51:00,52.2,32.0,30.30,ESE,112,2.5,3.4,46,0.00,,---,0.00,VWS V14.01,2013-01-26 16:51:00,
2013-01-26 10:56:00,51.1,30.0,30.30,East,90,1.6,1.6,44,0.00,,---,0.00,VWS V14.01,2013-01-26 16:56:00,
2013-01-26 11:01:00,50.5,28.9,30.27,South,180,0.0,1.1,43,0.00,,---,0.00,VWS V14.01,2013-01-26 17:01:00,
2013-01-26 11:06:00,51.1,30.0,30.27,South,180,0.0,0.0,44,0.00,,---,0.00,VWS V14.01,2013-01-26 17:06:00,
2013-01-26 11:11:00,51.6,30.4,30.27,SE,135,1.6,1.6,44,0.00,,---,0.00,VWS V14.01,2013-01-26 17:11:00,
2013-01-26 11:16:00,52.0,30.8,30.30,East,90,2.7,2.7,44,0.00,,---,0.00,VWS V14.01,2013-01-26 17:16:00,
2013-01-26 11:21:00,52.2,30.4,30.30,South,180,0.0,0.0,43,0.00,,---,0.00,VWS V14.01,2013-01-26 17:21:00,
2013-01-26 11:26:00,52.3,29.4,30.30,SE,135,2.7,3.4,41,0.00,,---,0.00,VWS V14.01,2013-01-26 17:26:00,
2013-01-26 11:31:00,53.1,30.0,30.27,ESE,112,2.0,2.2,41,0.00,,---,0.00,VWS V14.01,2013-01-26 17:31:00,
2013-01-26 11:36:00,54.3,30.5,30.27,SW,225,3.8,4.3,40,0.00,,---,0.00,VWS V14.01,2013-01-26 17:36:00,
2013-01-26 11:41:00,55.4,30.9,30.27,ESE,112,0.0,4.0,39,0.00,,---,0.00,VWS V14.01,2013-01-26 17:41:00,
2013-01-26 11:46:00,55.9,31.4,30.27,South,180,0.0,2.7,39,0.00,,---,0.00,VWS V14.01,2013-01-26 17:46:00,
2013-01-26 11:51:00,56.7,32.0,30.27,South,180,3.4,3.4,39,0.00,,---,0.00,VWS V14.01,2013-01-26 17:51:00,
2013-01-26 11:56:00,57.0,31.7,30.27,East,90,2.5,2.5,38,0.00,,---,0.00,VWS V14.01,2013-01-26 17:56:00,
2013-01-26 12:01:00,57.4,32.0,30.27,ESE,112,0.9,1.1,38,0.00,,---,0.00,VWS V14.01,2013-01-26 18:01:00,
2013-01-26 12:06:00,57.6,31.5,30.27,SSE,158,2.0,2.5,37,0.00,,---,0.00,VWS V14.01,2013-01-26 18:06:00,
2013-01-26 12:11:00,57.0,31.0,30.27,ESE,112,1.6,2.7,37,0.00,,---,0.00,VWS V14.01,2013-01-26 18:11:00,
2013-01-26 12:16:00,57.2,30.5,30.24,ESE,112,0.0,0.0,36,0.00,,---,0.00,VWS V14.01,2013-01-26 18:16:00,
2013-01-26 12:21:00,57.4,30.7,30.24,South,180,1.1,1.1,36,0.00,,---,0.00,VWS V14.01,2013-01-26 18:21:00,
2013-01-26 12:26:00,57.6,30.8,30.24,SE,135,3.4,3.4,36,0.00,,---,0.00,VWS V14.01,2013-01-26 18:26:00,
2013-01-26 12:31:00,57.9,31.1,30.24,South,180,2.7,3.1,36,0.00,,---,0.00,VWS V14.01,2013-01-26 18:31:00,
2013-01-26 12:36:00,57.4,30.0,30.24,South,180,1.6,2.7,35,0.00,,---,0.00,VWS V14.01,2013-01-26 18:36:00,
2013-01-26 12:41:00,57.6,30.8,30.24,South,180,0.0,0.0,36,0.00,,---,0.00,VWS V14.01,2013-01-26 18:41:00,
2013-01-26 12:46:00,57.9,31.1,30.24,ESE,112,0.0,1.1,36,0.00,,---,0.00,VWS V14.01,2013-01-26 18:46:00,
2013-01-26 12:51:00,57.9,30.5,30.24,South,180,0.9,0.9,35,0.00,,---,0.00,VWS V14.01,2013-01-26 18:51:00,
2013-01-26 12:56:00,58.8,32.0,30.24,SW,225,2.0,2.0,36,0.00,,---,0.00,VWS V14.01,2013-01-26 18:56:00,
2013-01-26 13:01:00,59.2,31.6,30.21,ESE,112,2.0,2.0,35,0.00,,---,0.00,VWS V14.01,2013-01-26 19:01:00,
2013-01-26 13:06:00,59.2,31.6,30.21,SE,135,1.1,2.5,35,0.00,,---,0.00,VWS V14.01,2013-01-26 19:06:00,
2013-01-26 13:11:00,58.8,31.2,30.21,SW,225,0.0,2.5,35,0.00,,---,0.00,VWS V14.01,2013-01-26 19:11:00,
2013-01-26 13:16:00,59.4,31.7,30.21,SE,135,0.0,0.0,35,0.00,,---,0.00,VWS V14.01,2013-01-26 19:16:00,
2013-01-26 13:21:00,59.7,32.0,30.21,SE,135,0.0,2.5,35,0.00,,---,0.00,VWS V14.01,2013-01-26 19:21:00,
2013-01-26 13:26:00,60.1,32.4,30.21,SE,135,3.4,3.4,35,0.00,,---,0.00,VWS V14.01,2013-01-26 19:26:00,
2013-01-26 13:31:00,59.9,31.5,30.21,East,90,0.0,0.0,34,0.00,,---,0.00,VWS V14.01,2013-01-26 19:31:00,
2013-01-26 13:36:00,60.4,32.0,30.21,South,180,2.5,2.5,34,0.00,,---,0.00,VWS V14.01,2013-01-26 19:36:00,
2013-01-26 13:41:00,60.4,32.0,30.21,South,180,2.0,2.0,34,0.00,,---,0.00,VWS V14.01,2013-01-26 19:41:00,
2013-01-26 13:46:00,60.4,32.0,30.18,SSE,158,1.1,1.6,34,0.00,,---,0.00,VWS V14.01,2013-01-26 19:46:00,
2013-01-26 13:51:00,61.0,32.4,30.18,SSW,202,1.1,2.9,34,0.00,,---,0.00,VWS V14.01,2013-01-26 19:51:00,
2013-01-26 13:56:00,61.0,30.9,30.18,SE,135,2.2,2.9,32,0.00,,---,0.00,VWS V14.01,2013-01-26 19:56:00,
2013-01-26 14:01:00,60.8,30.0,30.18,ESE,112,2.9,6.3,31,0.00,,---,0.00,VWS V14.01,2013-01-26 20:01:00,
2013-01-26 14:06:00,61.3,31.2,30.18,SE,135,0.0,1.3,32,0.00,,---,0.00,VWS V14.01,2013-01-26 20:06:00,
2013-01-26 14:11:00,61.7,30.8,30.18,East,90,2.7,3.1,31,0.00,,---,0.00,VWS V14.01,2013-01-26 20:11:00,
2013-01-26 14:16:00,61.5,30.6,30.18,South,180,0.0,2.9,31,0.00,,---,0.00,VWS V14.01,2013-01-26 20:16:00,
2013-01-26 14:21:00,61.5,30.6,30.18,South,180,2.5,3.6,31,0.00,,---,0.00,VWS V14.01,2013-01-26 20:21:00,
2013-01-26 14:26:00,61.5,30.6,30.18,ESE,112,0.0,1.1,31,0.00,,---,0.00,VWS V14.01,2013-01-26 20:26:00,
2013-01-26 14:31:00,61.9,30.1,30.18,East,90,1.1,2.0,30,0.00,,---,0.00,VWS V14.01,2013-01-26 20:31:00,
2013-01-26 14:36:00,62.1,29.5,30.18,South,180,2.2,2.5,29,0.00,,---,0.00,VWS V14.01,2013-01-26 20:36:00,
2013-01-26 14:41:00,62.2,30.5,30.18,SSE,158,2.5,2.5,30,0.00,,---,0.00,VWS V14.01,2013-01-26 20:41:00,
2013-01-26 14:46:00,62.1,29.5,30.18,SE,135,1.3,2.2,29,0.00,,---,0.00,VWS V14.01,2013-01-26 20:46:00,
2013-01-26 14:51:00,62.8,30.9,30.18,South,180,2.9,2.9,30,0.00,,---,0.00,VWS V14.01,2013-01-26 20:51:00,
2013-01-26 14:56:00,63.0,31.1,30.18,East,90,2.5,2.5,30,0.00,,---,0.00,VWS V14.01,2013-01-26 20:56:00,
2013-01-26 15:01:00,62.4,31.4,30.18,ESE,112,1.6,1.6,31,0.00,,---,0.00,VWS V14.01,2013-01-26 21:01:00,
2013-01-26 15:06:00,62.4,30.6,30.18,SSE,158,0.0,1.3,30,0.00,,---,0.00,VWS V14.01,2013-01-26 21:06:00,
2013-01-26 15:11:00,62.1,29.5,30.18,SE,135,0.0,0.9,29,0.00,,---,0.00,VWS V14.01,2013-01-26 21:11:00,
2013-01-26 15:16:00,61.5,29.0,30.18,ESE,112,1.6,6.3,29,0.00,,---,0.00,VWS V14.01,2013-01-26 21:16:00,
2013-01-26 15:21:00,61.2,29.5,30.18,South,180,0.0,0.9,30,0.00,,---,0.00,VWS V14.01,2013-01-26 21:21:00,
2013-01-26 15:26:00,60.6,29.0,30.18,SSE,158,1.1,1.1,30,0.00,,---,0.00,VWS V14.01,2013-01-26 21:26:00,
2013-01-26 15:31:00,60.1,28.6,30.15,South,180,0.0,1.1,30,0.00,,---,0.00,VWS V14.01,2013-01-26 21:31:00,
2013-01-26 15:36:00,60.1,28.6,30.15,South,180,1.1,1.1,30,0.00,,---,0.00,VWS V14.01,2013-01-26 21:36:00,
2013-01-26 15:41:00,59.5,28.9,30.15,East,90,2.7,2.7,31,0.00,,---,0.00,VWS V14.01,2013-01-26 21:41:00,
2013-01-26 15:46:00,59.2,27.8,30.15,NE,45,3.6,3.6,30,0.00,,---,0.00,VWS V14.01,2013-01-26 21:46:00,
2013-01-26 15:51:00,58.8,28.3,30.15,South,180,0.0,0.0,31,0.00,,---,0.00,VWS V14.01,2013-01-26 21:51:00,
2013-01-26 15:56:00,58.6,28.1,30.15,SSE,158,2.2,2.2,31,0.00,,---,0.00,VWS V14.01,2013-01-26 21:56:00,
2013-01-26 16:01:00,58.5,28.0,30.15,SE,135,0.0,0.0,31,0.00,,---,0.00,VWS V14.01,2013-01-26 22:01:00,
2013-01-26 16:06:00,58.5,28.0,30.15,SE,135,0.0,0.0,31,0.00,,---,0.00,VWS V14.01,2013-01-26 22:06:00,
2013-01-26 16:11:00,58.1,26.9,30.15,ESE,112,0.0,1.1,30,0.00,,---,0.00,VWS V14.01,2013-01-26 22:11:00,
2013-01-26 16:16:00,57.7,27.3,30.15,SSE,158,0.0,0.9,31,0.00,,---,0.00,VWS V14.01,2013-01-26 22:16:00,
2013-01-26 16:21:00,57.6,27.2,30.15,SSE,158,0.0,0.0,31,0.00,,---,0.00,VWS V14.01,2013-01-26 22:21:00,
2013-01-26 16:26:00,57.2,26.9,30.15,SE,135,1.1,1.1,31,0.00,,---,0.00,VWS V14.01,2013-01-26 22:26:00,
2013-01-26 16:31:00,56.8,27.3,30.15,SSE,158,0.0,2.2,32,0.00,,---,0.00,VWS V14.01,2013-01-26 22:31:00,
2013-01-26 16:36:00,56.7,27.2,30.15,East,90,0.0,0.0,32,0.00,,---,0.00,VWS V14.01,2013-01-26 22:36:00,
2013-01-26 16:41:00,56.3,26.8,30.15,SSE,158,2.0,2.5,32,0.00,,---,0.00,VWS V14.01,2013-01-26 22:41:00,
2013-01-26 16:46:00,56.1,26.7,30.15,ESE,112,0.0,1.1,32,0.00,,---,0.00,VWS V14.01,2013-01-26 22:46:00,
2013-01-26 16:51:00,55.9,26.5,30.15,SSE,158,2.9,2.9,32,0.00,,---,0.00,VWS V14.01,2013-01-26 22:51:00,
2013-01-26 16:56:00,55.4,26.0,30.15,SSE,158,1.6,1.6,32,0.00,,---,0.00,VWS V14.01,2013-01-26 22:56:00,
2013-01-26 17:01:00,54.7,26.2,30.12,South,180,0.0,0.0,33,0.00,,---,0.00,VWS V14.01,2013-01-26 23:01:00,
2013-01-26 17:06:00,54.3,25.9,30.12,East,90,1.1,2.2,33,0.00,,---,0.00,VWS V14.01,2013-01-26 23:06:00,
2013-01-26 17:11:00,54.0,25.5,30.12,South,180,0.0,0.0,33,0.00,,---,0.00,VWS V14.01,2013-01-26 23:11:00,
2013-01-26 17:16:00,53.4,25.8,30.15,ESE,112,0.0,0.0,34,0.00,,---,0.00,VWS V14.01,2013-01-26 23:16:00,
2013-01-26 17:21:00,53.1,25.5,30.15,East,90,0.9,3.6,34,0.00,,---,0.00,VWS V14.01,2013-01-26 23:21:00,
2013-01-26 17:26:00,52.7,25.8,30.15,SSE,158,0.0,0.0,35,0.00,,---,0.00,VWS V14.01,2013-01-26 23:26:00,
2013-01-26 17:31:00,52.2,25.4,30.15,SE,135,0.0,0.0,35,0.00,,---,0.00,VWS V14.01,2013-01-26 23:31:00,
2013-01-26 17:36:00,51.6,25.6,30.15,East,90,0.0,0.0,36,0.00,,---,0.00,VWS V14.01,2013-01-26 23:36:00,
2013-01-26 17:41:00,51.3,25.2,30.15,ENE,68,0.0,0.0,36,0.00,,---,0.00,VWS V14.01,2013-01-26 23:41:00,
2013-01-26 17:46:00,50.9,24.9,30.15,ENE,68,0.0,0.0,36,0.00,,---,0.00,VWS V14.01,2013-01-26 23:46:00,
2013-01-26 17:51:00,50.2,24.3,30.15,South,180,0.0,0.0,36,0.00,,---,0.00,VWS V14.01,2013-01-26 23:51:00,
2013-01-26 17:56:00,49.6,24.5,30.15,SW,225,0.0,0.0,37,0.00,,---,0.00,VWS V14.01,2013-01-26 23:56:00,
2013-01-26 18:01:00,49.3,24.1,30.12,SE,135,0.0,0.0,37,0.00,,---,0.00,VWS V14.01,2013-01-27 00:01:00,
2013-01-26 18:06:00,48.9,23.8,30.12,South,180,0.0,0.0,37,0.00,,---,0.00,VWS V14.01,2013-01-27 00:06:00,
2013-01-26 18:11:00,48.6,23.5,30.12,South,180,0.0,0.0,37,0.00,,---,0.00,VWS V14.01,2013-01-27 00:11:00,
2013-01-26 18:16:00,48.2,23.2,30.15,South,180,0.0,0.0,37,0.00,,---,0.00,VWS V14.01,2013-01-27 00:16:00,
2013-01-26 18:21:00,47.7,22.7,30.15,South,180,0.0,0.0,37,0.00,,---,0.00,VWS V14.01,2013-01-27 00:21:00,
2013-01-26 18:26:00,47.3,23.0,30.15,South,180,0.0,0.0,38,0.00,,---,0.00,VWS V14.01,2013-01-27 00:26:00,
2013-01-26 18:31:00,47.1,22.8,30.12,SE,135,0.0,0.0,38,0.00,,---,0.00,VWS V14.01,2013-01-27 00:31:00,
2013-01-26 18:36:00,46.9,22.7,30.12,SE,135,0.0,0.0,38,0.00,,---,0.00,VWS V14.01,2013-01-27 00:36:00,
2013-01-26 18:41:00,46.8,22.5,30.12,SE,135,0.0,0.0,38,0.00,,---,0.00,VWS V14.01,2013-01-27 00:41:00,
2013-01-26 18:46:00,46.6,22.4,30.12,SE,135,0.0,0.0,38,0.00,,---,0.00,VWS V14.01,2013-01-27 00:46:00,
2013-01-26 18:51:00,46.4,22.2,30.12,SE,135,0.0,0.0,38,0.00,,---,0.00,VWS V14.01,2013-01-27 00:51:00,
2013-01-26 18:56:00,46.2,22.6,30.12,South,180,0.0,0.0,39,0.00,,---,0.00,VWS V14.01,2013-01-27 00:56:00,
2013-01-26 19:01:00,46.0,22.5,30.12,South,180,0.0,0.0,39,0.00,,---,0.00,VWS V14.01,2013-01-27 01:01:00,
2013-01-26 19:06:00,45.9,22.3,30.12,South,180,0.0,0.0,39,0.00,,---,0.00,VWS V14.01,2013-01-27 01:06:00,
2013-01-26 19:11:00,45.5,22.0,30.12,South,180,0.0,0.0,39,0.00,,---,0.00,VWS V14.01,2013-01-27 01:11:00,
2013-01-26 19:16:00,45.3,21.8,30.15,South,180,0.0,0.0,39,0.00,,---,0.00,VWS V14.01,2013-01-27 01:16:00,
2013-01-26 19:21:00,45.1,21.7,30.15,South,180,0.0,0.0,39,0.00,,---,0.00,VWS V14.01,2013-01-27 01:21:00,
2013-01-26 19:26:00,44.8,21.4,30.15,South,180,0.0,0.0,39,0.00,,---,0.00,VWS V14.01,2013-01-27 01:26:00,
2013-01-26 19:30:00,44.6,21.2,30.15,South,180,0.0,0.0,39,0.00,,---,0.00,VWS V14.01,2013-01-27 01:30:00,
2013-01-26 19:36:00,44.4,21.6,30.15,South,180,0.0,0.0,40,0.00,,---,0.00,VWS V14.01,2013-01-27 01:36:00,
2013-01-26 19:40:00,44.6,21.8,30.15,South,180,0.0,0.0,40,0.00,,---,0.00,VWS V14.01,2013-01-27 01:40:00,
2013-01-26 19:45:00,44.8,22.0,30.15,South,180,0.0,0.9,40,0.00,,---,0.00,VWS V14.01,2013-01-27 01:45:00,
2013-01-26 19:50:00,45.1,22.3,30.15,East,90,0.0,0.0,40,0.00,,---,0.00,VWS V14.01,2013-01-27 01:50:00,
2013-01-26 19:55:00,45.5,22.6,30.15,South,180,0.0,0.9,40,0.00,,---,0.00,VWS V14.01,2013-01-27 01:55:00,
2013-01-26 20:00:00,45.9,22.9,30.15,South,180,0.0,0.0,40,0.00,,---,0.00,VWS V14.01,2013-01-27 02:00:00,
2013-01-26 20:05:00,46.0,23.1,30.12,NE,45,0.0,0.0,40,0.00,,---,0.00,VWS V14.01,2013-01-27 02:05:00,
2013-01-26 20:10:00,46.2,23.8,30.12,South,180,0.0,1.1,41,0.00,,---,0.00,VWS V14.01,2013-01-27 02:10:00,
2013-01-26 20:15:00,46.2,23.8,30.12,SSE,158,0.0,0.9,41,0.00,,---,0.00,VWS V14.01,2013-01-27 02:15:00,
2013-01-26 20:20:00,46.2,23.8,30.12,East,90,0.0,0.0,41,0.00,,---,0.00,VWS V14.01,2013-01-27 02:20:00,
2013-01-26 20:25:00,46.0,23.7,30.12,South,180,0.0,0.0,41,0.00,,---,0.00,VWS V14.01,2013-01-27 02:25:00,
2013-01-26 20:30:00,45.9,23.5,30.12,North,0,0.0,0.0,41,0.00,,---,0.00,VWS V14.01,2013-01-27 02:30:00,
2013-01-26 20:35:00,45.9,23.5,30.12,South,180,0.0,0.0,41,0.00,,---,0.00,VWS V14.01,2013-01-27 02:35:00,
2013-01-26 20:40:00,45.7,23.4,30.12,South,180,0.0,0.0,41,0.00,,---,0.00,VWS V14.01,2013-01-27 02:40:00,
2013-01-26 20:45:00,45.5,23.2,30.12,South,180,0.0,0.0,41,0.00,,---,0.00,VWS V14.01,2013-01-27 02:45:00,
2013-01-26 20:50:00,45.3,23.0,30.12,South,180,0.0,0.0,41,0.00,,---,0.00,VWS V14.01,2013-01-27 02:50:00,
2013-01-26 20:55:00,45.1,22.9,30.12,South,180,0.0,0.0,41,0.00,,---,0.00,VWS V14.01,2013-01-27 02:55:00,
2013-01-26 21:00:00,44.8,22.5,30.12,South,180,0.0,0.0,41,0.00,,---,0.00,VWS V14.01,2013-01-27 03:00:00,
2013-01-26 21:05:00,44.6,22.4,30.12,South,180,0.0,0.0,41,0.00,,---,0.00,VWS V14.01,2013-01-27 03:05:00,
2013-01-26 21:10:00,44.6,22.4,30.12,SE,135,0.0,2.0,41,0.00,,---,0.00,VWS V14.01,2013-01-27 03:10:00,
2013-01-26 21:15:00,44.6,22.9,30.12,SE,135,0.0,0.0,42,0.00,,---,0.00,VWS V14.01,2013-01-27 03:15:00,
2013-01-26 21:20:00,44.6,22.9,30.12,SE,135,0.0,0.0,42,0.00,,---,0.00,VWS V14.01,2013-01-27 03:20:00,
2013-01-26 21:25:00,44.8,23.1,30.12,SE,135,0.0,0.9,42,0.00,,---,0.00,VWS V14.01,2013-01-27 03:25:00,
2013-01-26 21:30:00,44.8,23.1,30.09,South,180,0.0,0.0,42,0.00,,---,0.00,VWS V14.01,2013-01-27 03:30:00,
2013-01-26 21:35:00,44.6,22.9,30.09,SE,135,0.0,0.9,42,0.00,,---,0.00,VWS V14.01,2013-01-27 03:35:00,
2013-01-26 21:40:00,44.4,22.8,30.09,South,180,0.0,0.0,42,0.00,,---,0.00,VWS V14.01,2013-01-27 03:40:00,
2013-01-26 21:45:00,44.4,23.3,30.09,SE,135,0.0,0.0,43,0.00,,---,0.00,VWS V14.01,2013-01-27 03:45:00,
2013-01-26 21:50:00,44.4,23.3,30.09,SE,135,0.0,0.0,43,0.00,,---,0.00,VWS V14.01,2013-01-27 03:50:00,
2013-01-26 21:55:00,44.4,23.3,30.09,SSE,158,0.0,0.0,43,0.00,,---,0.00,VWS V14.01,2013-01-27 03:55:00,
2013-01-26 22:00:00,44.4,23.3,30.09,SE,135,0.0,0.0,43,0.00,,---,0.00,VWS V14.01,2013-01-27 04:00:00,
2013-01-26 22:05:00,44.4,23.3,30.09,SE,135,0.0,0.0,43,0.00,,---,0.00,VWS V14.01,2013-01-27 04:05:00,
2013-01-26 22:10:00,44.4,23.3,30.09,East,90,0.0,0.0,43,0.00,,---,0.00,VWS V14.01,2013-01-27 04:10:00,
2013-01-26 22:15:00,44.6,23.5,30.09,ENE,68,1.3,1.3,43,0.00,,---,0.00,VWS V14.01,2013-01-27 04:15:00,
2013-01-26 22:20:00,44.6,23.5,30.09,South,180,0.0,0.0,43,0.00,,---,0.00,VWS V14.01,2013-01-27 04:20:00,
2013-01-26 22:25:00,44.6,23.5,30.09,South,180,0.0,0.0,43,0.00,,---,0.00,VWS V14.01,2013-01-27 04:25:00,
2013-01-26 22:30:00,44.8,23.7,30.09,ENE,68,0.0,0.0,43,0.00,,---,0.00,VWS V14.01,2013-01-27 04:30:00,
2013-01-26 22:35:00,44.8,23.7,30.09,SW,225,0.0,0.0,43,0.00,,---,0.00,VWS V14.01,2013-01-27 04:35:00,
2013-01-26 22:40:00,44.8,23.7,30.09,South,180,0.0,1.6,43,0.00,,---,0.00,VWS V14.01,2013-01-27 04:40:00,
2013-01-26 22:45:00,45.0,23.8,30.09,SE,135,0.0,2.0,43,0.00,,---,0.00,VWS V14.01,2013-01-27 04:45:00,
2013-01-26 22:50:00,45.3,24.2,30.09,SSE,158,0.0,0.0,43,0.00,,---,0.00,VWS V14.01,2013-01-27 04:50:00,
2013-01-26 22:55:00,45.5,24.3,30.09,South,180,0.0,0.0,43,0.00,,---,0.00,VWS V14.01,2013-01-27 04:55:00,
2013-01-26 23:00:00,46.0,24.8,30.09,SSE,158,0.0,0.0,43,0.00,,---,0.00,VWS V14.01,2013-01-27 05:00:00,
2013-01-26 23:01:00,46.0,24.8,30.09,SSE,158,0.0,0.0,43,0.00,,---,0.00,VWS V14.01,2013-01-27 05:01:00,
2013-01-26 23:03:00,46.2,25.0,30.09,South,180,0.0,0.9,43,0.00,,---,0.00,VWS V14.01,2013-01-27 05:03:00,
2013-01-26 23:08:00,46.9,25.1,30.09,SSE,158,0.0,0.0,42,0.00,,---,0.00,VWS V14.01,2013-01-27 05:08:00,
2013-01-26 23:13:00,47.3,25.4,30.09,SSE,158,0.0,0.9,42,0.00,,---,0.00,VWS V14.01,2013-01-27 05:13:00,
2013-01-26 23:18:00,47.5,25.5,30.09,South,180,0.0,0.0,42,0.00,,---,0.00,VWS V14.01,2013-01-27 05:18:00,
2013-01-26 23:23:00,47.5,25.5,30.09,South,180,0.0,0.9,42,0.00,,---,0.00,VWS V14.01,2013-01-27 05:23:00,
2013-01-26 23:28:00,47.7,25.7,30.09,SSE,158,0.0,0.0,42,0.00,,---,0.00,VWS V14.01,2013-01-27 05:28:00,
2013-01-26 23:33:00,47.7,25.7,30.09,SSE,158,0.0,0.0,42,0.00,,---,0.00,VWS V14.01,2013-01-27 05:33:00,
2013-01-26 23:38:00,47.7,25.7,30.09,SSE,158,0.0,0.0,42,0.00,,---,0.00,VWS V14.01,2013-01-27 05:38:00,
2013-01-26 23:43:00,47.7,26.3,30.09,SSE,158,0.0,2.0,43,0.00,,---,0.00,VWS V14.01,2013-01-27 05:43:00,
2013-01-26 23:48:00,47.3,26.0,30.09,SE,135,0.9,0.9,43,0.00,,---,0.00,VWS V14.01,2013-01-27 05:48:00,
2013-01-26 23:53:00,47.3,26.0,30.09,South,180,0.0,0.0,43,0.00,,---,0.00,VWS V14.01,2013-01-27 05:53:00,
2013-01-26 23:58:00,46.9,26.2,30.09,South,180,0.0,0.0,44,0.00,,---,0.00,VWS V14.01,2013-01-27 05:58:00,